createdAt,value
2023-03-12T00:02:04.187Z,143024.81
2023-03-12T00:04:32.381Z,143042.88
2023-03-12T00:06:59.384Z,143032.00
2023-03-12T00:09:26.431Z,143039.25
2023-03-12T00:11:53.504Z,143036.81
2023-03-12T00:14:20.596Z,143034.44
2023-03-12T00:16:47.567Z,143034.44
2023-03-12T00:19:14.675Z,143039.25
2023-03-12T00:21:41.660Z,143022.38
2023-03-12T00:24:08.853Z,143045.25
2023-03-12T00:26:35.868Z,143030.81
2023-03-12T00:29:02.896Z,143046.47
2023-03-12T00:31:32.791Z,143040.44
2023-03-12T00:34:01.463Z,143052.50
2023-03-12T00:36:30.989Z,143038.06
2023-03-12T00:38:59.930Z,143040.44
2023-03-12T00:41:28.337Z,143053.72
2023-03-12T00:43:55.396Z,143060.97
2023-03-12T00:46:22.570Z,143017.56
2023-03-12T00:48:49.975Z,143053.72
2023-03-12T00:51:17.008Z,143047.69
2023-03-12T00:53:44.072Z,143034.44
2023-03-12T00:56:11.209Z,143054.91
2023-03-12T00:58:38.354Z,143016.38
2023-03-12T01:01:05.518Z,143053.72
2023-03-12T01:03:32.723Z,143044.06
2023-03-12T01:05:59.848Z,143070.59
2023-03-12T01:08:27.231Z,143072.97
2023-03-12T01:10:54.492Z,143029.63
2023-03-12T01:13:22.261Z,143068.16
2023-03-12T01:15:49.419Z,143056.13
2023-03-12T01:18:16.467Z,143089.84
2023-03-12T01:20:43.561Z,143092.28
2023-03-12T01:23:11.256Z,143087.47
2023-03-12T01:25:38.261Z,143094.66
2023-03-12T01:28:05.763Z,142988.66
2023-03-12T01:30:32.900Z,143116.38
2023-03-12T01:32:59.973Z,143089.84
2023-03-12T01:35:27.042Z,143081.41
2023-03-12T01:37:55.867Z,143080.22
2023-03-12T01:40:28.832Z,143089.84
2023-03-12T01:42:57.986Z,143087.47
2023-03-12T01:46:03.035Z,143094.66
2023-03-12T01:48:38.462Z,143123.63
2023-03-12T01:51:08.280Z,143121.19
2023-03-12T01:53:37.815Z,143115.19
2023-03-12T01:56:06.284Z,143121.19
2023-03-12T01:58:37.968Z,143077.78
2023-03-12T02:01:05.497Z,143142.91
2023-03-12T02:03:35.255Z,143150.09
2023-03-12T02:06:08.219Z,143162.16
2023-03-12T02:08:37.997Z,143154.91
2023-03-12T02:11:05.484Z,143136.84
2023-03-12T02:13:33.002Z,143150.09
2023-03-12T02:16:00.695Z,143142.91
2023-03-12T02:18:28.253Z,143145.28
2023-03-12T02:21:15.863Z,143133.25
2023-03-12T02:23:57.532Z,143135.66
2023-03-12T02:26:29.111Z,143153.72
2023-03-12T02:28:59.894Z,143147.72
2023-03-12T02:31:32.998Z,143154.91
2023-03-12T02:34:00.631Z,143150.09
2023-03-12T02:36:28.038Z,143148.91
2023-03-12T02:38:55.862Z,143138.09
2023-03-12T02:41:26.366Z,143145.28
2023-03-12T02:44:08.407Z,143142.91
2023-03-12T02:46:41.795Z,143154.91
2023-03-12T02:49:09.317Z,143152.53
2023-03-12T02:51:36.330Z,143159.78
2023-03-12T02:54:03.656Z,143152.53
2023-03-12T02:56:30.824Z,143187.50
2023-03-12T02:58:59.264Z,143173.00
2023-03-12T03:01:27.403Z,143198.34
2023-03-12T03:03:54.884Z,143176.63
2023-03-12T03:06:23.057Z,143124.81
2023-03-12T03:08:50.172Z,143198.34
2023-03-12T03:11:17.369Z,143171.81
2023-03-12T03:13:44.782Z,143165.78
2023-03-12T03:16:13.487Z,143214.03
2023-03-12T03:18:40.686Z,143176.63
2023-03-12T03:21:09.590Z,143177.88
2023-03-12T03:23:37.311Z,143177.88
2023-03-12T03:26:04.615Z,143195.94
2023-03-12T03:28:31.958Z,143189.88
2023-03-12T03:31:01.696Z,143186.28
2023-03-12T03:33:35.803Z,143118.75
2023-03-12T03:36:04.987Z,143200.78
2023-03-12T03:38:35.954Z,143189.88
2023-03-12T03:41:04.007Z,143211.59
2023-03-12T03:43:33.389Z,143176.63
2023-03-12T03:46:03.149Z,143220.03
2023-03-12T03:48:33.774Z,143150.09
2023-03-12T03:51:02.702Z,143226.06
2023-03-12T03:53:32.027Z,143233.31
2023-03-12T03:55:59.172Z,143239.31
2023-03-12T03:58:26.168Z,143268.28
2023-03-12T04:00:54.277Z,143262.22
2023-03-12T04:03:21.316Z,143271.88
2023-03-12T04:05:54.939Z,143280.31
2023-03-12T04:08:22.247Z,143282.75
2023-03-12T04:10:49.377Z,143280.31
2023-03-12T04:13:16.446Z,143292.41
2023-03-12T04:15:52.014Z,143259.84
2023-03-12T04:18:20.340Z,143241.75
2023-03-12T04:20:47.836Z,143283.94
2023-03-12T04:23:14.939Z,143205.59
2023-03-12T04:25:42.457Z,143303.22
2023-03-12T04:28:09.492Z,143300.84
2023-03-12T04:30:38.512Z,143357.50
2023-03-12T04:33:06.899Z,143316.50
2023-03-12T04:35:34.616Z,143302.03
2023-03-12T04:38:02.268Z,143304.41
2023-03-12T04:40:30.000Z,143334.59
2023-03-12T04:42:57.218Z,143350.28
2023-03-12T04:45:24.390Z,143343.03
2023-03-12T04:47:51.401Z,143344.22
2023-03-12T04:50:18.629Z,143343.03
2023-03-12T04:52:45.714Z,143359.94
2023-03-12T04:55:12.856Z,143369.59
2023-03-12T04:57:40.283Z,143378.03
2023-03-12T05:00:12.708Z,143333.41
2023-03-12T05:02:41.765Z,143369.59
2023-03-12T05:05:11.120Z,143371.97
2023-03-12T05:07:38.478Z,143328.56
2023-03-12T05:10:06.044Z,143270.69
2023-03-12T05:12:33.099Z,143381.66
2023-03-12T05:15:00.117Z,143385.25
2023-03-12T05:17:27.858Z,143384.03
2023-03-12T05:19:55.159Z,143388.88
2023-03-12T05:22:22.263Z,143381.66
2023-03-12T05:24:49.413Z,143335.78
2023-03-12T05:27:17.774Z,143412.97
2023-03-12T05:29:44.872Z,143403.34
2023-03-12T05:32:12.112Z,143352.69
2023-03-12T05:34:39.366Z,143425.06
2023-03-12T05:37:06.899Z,143427.50
2023-03-12T05:39:34.127Z,143427.50
2023-03-12T05:42:05.276Z,143425.06
2023-03-12T05:44:34.718Z,143441.97
2023-03-12T05:47:02.174Z,143422.66
2023-03-12T05:49:29.247Z,143451.63
2023-03-12T05:51:57.573Z,143470.91
2023-03-12T05:54:24.861Z,143451.63
2023-03-12T05:56:52.994Z,143443.16
2023-03-12T05:59:22.004Z,143478.16
2023-03-12T06:01:49.954Z,143410.59
2023-03-12T06:04:17.184Z,143476.97
2023-03-12T06:06:45.228Z,143509.53
2023-03-12T06:09:12.442Z,143510.72
2023-03-12T06:11:39.513Z,143516.75
2023-03-12T06:14:06.771Z,143531.28
2023-03-12T06:16:35.807Z,143516.75
2023-03-12T06:19:04.890Z,143524.00
2023-03-12T06:21:35.152Z,143526.44
2023-03-12T06:24:03.890Z,143518.00
2023-03-12T06:26:57.055Z,143520.38
2023-03-12T06:29:24.080Z,143526.44
2023-03-12T06:31:52.273Z,143528.84
2023-03-12T06:34:19.482Z,143509.53
2023-03-12T06:36:46.513Z,143514.38
2023-03-12T06:39:13.565Z,143516.75
2023-03-12T06:41:41.682Z,143562.66
2023-03-12T06:44:08.858Z,143552.97
2023-03-12T06:46:36.941Z,143575.91
2023-03-12T06:49:04.108Z,143555.41
2023-03-12T06:51:31.283Z,143565.06
2023-03-12T06:54:00.924Z,143571.06
2023-03-12T06:56:29.393Z,143548.13
2023-03-12T06:58:56.564Z,143546.94
2023-03-12T07:01:23.585Z,143560.22
2023-03-12T07:03:50.656Z,143572.31
2023-03-12T07:06:22.671Z,143586.78
2023-03-12T07:08:50.546Z,143569.88
2023-03-12T07:11:18.253Z,143631.47
2023-03-12T07:13:45.537Z,143630.22
2023-03-12T07:16:12.772Z,143625.41
2023-03-12T07:18:39.967Z,143604.88
2023-03-12T07:21:07.013Z,143589.19
2023-03-12T07:23:34.029Z,143596.44
2023-03-12T07:26:01.044Z,143567.47
2023-03-12T07:28:28.151Z,143556.59
2023-03-12T07:31:06.544Z,143591.63
2023-03-12T07:33:34.518Z,143565.06
2023-03-12T07:36:02.177Z,143566.25
2023-03-12T07:38:29.653Z,143562.66
2023-03-12T07:40:58.650Z,143481.78
2023-03-12T07:43:26.070Z,143560.22
2023-03-12T07:45:55.022Z,143567.47
2023-03-12T07:48:22.427Z,143572.31
2023-03-12T07:50:49.593Z,143591.63
2023-03-12T07:53:17.068Z,143627.81
2023-03-12T07:55:46.301Z,143623.00
2023-03-12T07:58:15.674Z,143627.81
2023-03-12T08:00:43.239Z,143608.53
2023-03-12T08:03:10.812Z,143651.97
2023-03-12T08:05:38.047Z,143636.28
2023-03-12T08:08:06.536Z,143683.34
2023-03-12T08:10:33.814Z,143685.78
2023-03-12T08:13:01.003Z,143673.69
2023-03-12T08:15:28.097Z,143719.59
2023-03-12T08:17:55.178Z,143703.91
2023-03-12T08:20:22.204Z,143688.19
2023-03-12T08:22:49.332Z,143707.53
2023-03-12T08:25:18.490Z,143719.59
2023-03-12T08:27:45.716Z,143738.91
2023-03-12T08:30:12.970Z,143729.25
2023-03-12T08:32:40.311Z,143726.84
2023-03-12T08:35:07.889Z,143743.78
2023-03-12T08:37:34.911Z,143761.88
2023-03-12T08:40:02.286Z,143796.88
2023-03-12T08:42:29.320Z,143806.53
2023-03-12T08:44:56.359Z,143806.53
2023-03-12T08:47:23.420Z,143813.81
2023-03-12T08:49:50.465Z,143811.38
2023-03-12T08:52:17.468Z,143825.91
2023-03-12T08:54:44.467Z,143794.50
2023-03-12T08:57:11.536Z,143874.19
2023-03-12T08:59:39.029Z,143869.38
2023-03-12T09:02:06.225Z,143792.06
2023-03-12T09:04:33.361Z,143857.31
2023-03-12T09:07:01.464Z,143836.75
2023-03-12T09:09:28.597Z,143869.38
2023-03-12T09:11:55.827Z,143879.03
2023-03-12T09:17:10.590Z,143881.47
2023-03-12T09:19:37.625Z,143915.28
2023-03-12T09:22:04.664Z,143937.03
2023-03-12T09:24:31.696Z,143952.78
2023-03-12T09:26:58.762Z,143960.00
2023-03-12T09:29:25.788Z,143958.81
2023-03-12T09:31:53.110Z,143995.06
2023-03-12T09:34:20.223Z,143985.41
2023-03-12T09:36:47.430Z,143958.81
2023-03-12T09:39:14.503Z,143932.22
2023-03-12T09:41:44.640Z,143973.31
2023-03-12T09:44:30.308Z,143989.03
2023-03-12T09:47:01.989Z,143923.75
2023-03-12T09:49:46.577Z,144048.28
2023-03-12T09:52:32.893Z,144027.69
2023-03-12T09:55:11.245Z,144101.44
2023-03-12T09:57:38.499Z,144172.81
2023-03-12T10:00:12.241Z,144184.91
2023-03-12T10:02:42.226Z,144159.50
2023-03-12T10:05:26.383Z,144161.94
2023-03-12T10:08:23.952Z,144151.03
2023-03-12T10:11:00.203Z,144137.72
2023-03-12T10:13:43.680Z,144161.94
2023-03-12T10:16:34.918Z,144193.38
2023-03-12T10:19:20.470Z,144212.72
2023-03-12T10:21:59.683Z,144249.00
2023-03-12T10:24:39.660Z,144287.75
2023-03-12T10:27:13.696Z,144304.66
2023-03-12T10:29:44.992Z,144227.22
2023-03-12T10:32:38.968Z,144339.75
2023-03-12T10:35:16.675Z,144332.47
2023-03-12T10:37:50.477Z,144330.09
2023-03-12T10:40:21.914Z,144338.56
2023-03-12T10:42:49.631Z,144316.78
2023-03-12T10:45:43.653Z,144386.94
2023-03-12T10:48:18.300Z,144396.66
2023-03-12T10:51:01.334Z,144401.50
2023-03-12T10:53:32.265Z,144448.69
2023-03-12T10:56:11.585Z,144423.25
2023-03-12T10:58:44.863Z,144477.72
2023-03-12T11:01:27.256Z,144432.97
2023-03-12T11:04:13.950Z,144435.38
2023-03-12T11:06:40.978Z,144440.22
2023-03-12T11:09:19.336Z,144454.72
2023-03-12T11:11:50.098Z,144464.41
2023-03-12T11:14:19.247Z,144440.22
2023-03-12T11:16:46.404Z,144460.81
2023-03-12T11:19:25.597Z,144418.41
2023-03-12T11:22:04.588Z,144399.06
2023-03-12T11:24:31.753Z,144407.53
2023-03-12T11:27:25.450Z,144384.53
2023-03-12T11:29:54.224Z,144417.22
2023-03-12T11:32:28.590Z,144365.19
2023-03-12T11:34:55.757Z,144353.06
2023-03-12T11:37:59.516Z,144430.53
2023-03-12T11:40:35.550Z,144440.22
2023-03-12T11:43:41.717Z,144439.00
2023-03-12T11:46:29.114Z,144464.41
2023-03-12T11:48:56.267Z,144483.81
2023-03-12T11:51:38.422Z,144524.97
2023-03-12T11:54:14.511Z,144517.69
2023-03-12T11:56:48.440Z,144516.50
2023-03-12T11:59:57.341Z,144522.53
2023-03-12T12:02:47.978Z,144546.78
2023-03-12T12:05:52.788Z,144578.22
2023-03-12T12:08:45.318Z,144577.03
2023-03-12T12:11:35.674Z,144589.16
2023-03-12T12:14:36.053Z,144625.47
2023-03-12T12:17:21.373Z,144641.22
2023-03-12T12:20:21.430Z,144646.06
2023-03-12T12:23:00.749Z,144648.50
2023-03-12T12:25:41.241Z,144608.50
2023-03-12T12:28:20.166Z,144709.09
2023-03-12T12:31:32.202Z,144718.78
2023-03-12T12:34:10.961Z,144718.78
2023-03-12T12:36:39.008Z,144735.75
2023-03-12T12:39:41.188Z,144690.94
2023-03-12T12:42:15.201Z,144699.41
2023-03-12T12:44:51.043Z,144726.06
2023-03-12T12:47:26.320Z,144769.72
2023-03-12T12:49:57.996Z,144764.88
2023-03-12T12:52:26.847Z,144776.94
2023-03-12T12:54:56.665Z,144829.09
2023-03-12T12:57:36.566Z,144876.34
2023-03-12T13:00:42.693Z,144905.41
2023-03-12T13:03:22.136Z,144906.66
2023-03-12T13:05:52.139Z,144935.75
2023-03-12T13:08:55.329Z,144978.16
2023-03-12T13:11:24.589Z,145004.84
2023-03-12T13:14:13.712Z,145021.84
2023-03-12T13:16:45.742Z,144990.31
2023-03-12T13:19:15.857Z,144973.31
2023-03-12T13:21:56.297Z,144946.69
2023-03-12T13:24:42.757Z,144946.69
2023-03-12T13:27:28.256Z,144975.75
2023-03-12T13:29:57.081Z,145020.63
2023-03-12T13:32:36.345Z,145026.69
2023-03-12T13:35:27.726Z,145021.84
2023-03-12T13:37:54.673Z,145009.69
2023-03-12T13:40:37.070Z,145038.81
2023-03-12T13:43:09.939Z,145030.34
2023-03-12T13:45:55.642Z,145014.53
2023-03-12T13:48:24.480Z,145009.69
2023-03-12T13:51:02.305Z,144993.94
2023-03-12T13:53:35.250Z,144978.16
2023-03-12T13:56:13.395Z,145014.53
2023-03-12T13:59:03.126Z,144983.06
2023-03-12T14:01:36.564Z,144966.06
2023-03-12T14:04:13.102Z,144959.97
2023-03-12T14:06:55.479Z,144961.22
2023-03-12T14:09:49.056Z,144956.38
2023-03-12T14:12:35.962Z,144920.00
2023-03-12T14:15:19.050Z,144910.31
2023-03-12T14:17:51.332Z,144933.34
2023-03-12T14:20:21.532Z,144958.78
2023-03-12T14:22:57.402Z,144938.19
2023-03-12T14:25:43.613Z,144953.94
2023-03-12T14:28:19.001Z,144975.75
2023-03-12T14:30:57.133Z,144998.81
2023-03-12T14:33:26.202Z,145032.72
2023-03-12T14:36:00.261Z,145048.53
2023-03-12T14:38:38.928Z,145080.06
2023-03-12T14:41:32.017Z,145120.09
2023-03-12T14:44:06.533Z,145126.16
2023-03-12T14:46:33.600Z,145133.44
2023-03-12T14:49:00.742Z,145141.91
2023-03-12T14:51:35.417Z,145160.09
2023-03-12T14:54:03.260Z,145151.66
2023-03-12T14:56:35.080Z,145172.25
2023-03-12T14:59:20.795Z,145139.50
2023-03-12T15:01:48.187Z,145181.94
2023-03-12T15:04:19.695Z,145174.69
2023-03-12T15:06:59.060Z,145099.47
2023-03-12T15:09:29.815Z,145126.16
2023-03-12T15:12:03.026Z,145117.66
2023-03-12T15:14:33.915Z,145143.16
2023-03-12T15:17:03.643Z,145162.53
2023-03-12T15:19:35.411Z,145194.09
2023-03-12T15:22:04.136Z,145157.69
2023-03-12T15:24:38.441Z,145191.66
2023-03-12T15:27:28.066Z,145189.25
2023-03-12T15:29:57.238Z,145194.09
2023-03-12T15:32:26.021Z,145205.00
2023-03-12T15:34:56.474Z,145098.25
2023-03-12T15:37:41.198Z,145215.94
2023-03-12T15:40:22.264Z,145220.78
2023-03-12T15:42:49.807Z,145198.94
2023-03-12T15:45:21.629Z,145173.44
2023-03-12T15:47:50.796Z,145106.75
2023-03-12T15:50:23.269Z,145184.41
2023-03-12T15:53:11.323Z,145172.25
2023-03-12T15:55:39.371Z,145191.66
2023-03-12T15:58:40.389Z,145191.66
2023-03-12T16:01:14.622Z,145197.75
2023-03-12T16:03:45.256Z,145202.59
2023-03-12T16:06:18.463Z,145207.44
2023-03-12T16:08:52.787Z,145235.34
2023-03-12T16:11:23.614Z,145275.44
2023-03-12T16:13:54.484Z,145273.00
2023-03-12T16:16:21.515Z,145277.84
2023-03-12T16:18:48.642Z,145275.44
2023-03-12T16:21:15.736Z,145276.66
2023-03-12T16:23:42.711Z,145245.06
2023-03-12T16:26:13.188Z,145254.78
2023-03-12T16:28:40.556Z,145266.94
2023-03-12T16:31:15.638Z,145232.91
2023-03-12T16:33:44.682Z,145230.50
2023-03-12T16:36:16.739Z,145253.59
2023-03-12T16:38:44.261Z,145251.09
2023-03-12T16:41:17.091Z,145242.66
2023-03-12T16:43:51.403Z,145252.41
2023-03-12T16:46:20.912Z,145245.06
2023-03-12T16:48:55.259Z,145260.91
2023-03-12T16:51:22.701Z,145211.09
2023-03-12T16:54:01.986Z,145237.81
2023-03-12T16:56:36.943Z,145257.25
2023-03-12T16:59:10.999Z,145247.50
2023-03-12T17:01:38.408Z,145256.03
2023-03-12T17:04:05.485Z,145274.25
2023-03-12T17:06:32.964Z,145269.34
2023-03-12T17:09:00.230Z,145263.31
2023-03-12T17:11:33.056Z,145265.75
2023-03-12T17:14:03.160Z,145196.50
2023-03-12T17:16:30.561Z,145274.25
2023-03-12T17:18:58.063Z,145293.66
2023-03-12T17:21:25.181Z,145293.66
2023-03-12T17:23:52.236Z,145293.66
2023-03-12T17:26:19.376Z,145276.66
2023-03-12T17:28:47.186Z,145232.91
2023-03-12T17:31:14.287Z,145286.34
2023-03-12T17:33:43.141Z,145273.00
2023-03-12T17:36:10.326Z,145264.50
2023-03-12T17:38:37.881Z,145242.66
2023-03-12T17:41:09.355Z,145235.34
2023-03-12T17:43:39.412Z,145226.84
2023-03-12T17:46:08.940Z,145223.19
2023-03-12T17:48:36.057Z,145174.69
2023-03-12T17:51:07.938Z,145145.56
2023-03-12T17:53:35.002Z,145252.41
2023-03-12T17:56:02.263Z,145138.31
2023-03-12T17:58:29.292Z,145211.09
2023-03-12T18:00:59.239Z,145274.25
2023-03-12T18:03:26.326Z,145281.50
2023-03-12T18:05:53.469Z,145281.50
2023-03-12T18:08:20.609Z,145276.66
2023-03-12T18:10:48.216Z,145237.81
2023-03-12T18:13:15.503Z,145260.91
2023-03-12T18:15:42.555Z,145268.16
2023-03-12T18:18:09.550Z,145241.41
2023-03-12T18:20:39.495Z,145237.81
2023-03-12T18:23:07.073Z,145234.16
2023-03-12T18:25:34.129Z,145236.56
2023-03-12T18:28:01.120Z,145230.50
2023-03-12T18:30:28.370Z,145217.16
2023-03-12T18:32:55.430Z,145201.41
2023-03-12T18:35:22.767Z,145157.69
2023-03-12T18:37:51.806Z,145208.66
2023-03-12T18:40:18.862Z,145247.50
2023-03-12T18:42:45.908Z,145264.50
2023-03-12T18:45:13.215Z,145248.69
2023-03-12T18:47:40.369Z,145251.09
2023-03-12T18:50:08.491Z,145192.91
2023-03-12T18:52:35.616Z,145257.25
2023-03-12T18:55:04.340Z,145259.66
2023-03-12T18:57:31.619Z,145218.34
2023-03-12T18:59:59.411Z,145237.81
2023-03-12T19:02:26.530Z,145257.25
2023-03-12T19:04:56.048Z,145276.66
2023-03-12T19:07:23.303Z,145276.66
2023-03-12T19:09:50.458Z,145291.22
2023-03-12T19:12:17.757Z,145288.81
2023-03-12T19:14:44.919Z,145281.50
2023-03-12T19:17:11.979Z,145290.00
2023-03-12T19:19:39.019Z,145288.81
2023-03-12T19:22:08.951Z,145294.88
2023-03-12T19:24:36.326Z,145293.66
2023-03-12T19:27:03.425Z,145293.66
2023-03-12T19:29:30.757Z,145291.22
2023-03-12T19:31:58.069Z,145304.56
2023-03-12T19:34:25.281Z,145228.06
2023-03-12T19:36:52.539Z,145313.06
2023-03-12T19:39:21.592Z,145303.38
2023-03-12T19:41:50.190Z,145269.34
2023-03-12T19:44:17.187Z,145287.56
2023-03-12T19:46:44.328Z,145283.97
2023-03-12T19:49:11.342Z,145283.97
2023-03-12T19:51:40.224Z,145290.00
2023-03-12T19:54:07.575Z,145291.22
2023-03-12T19:56:34.742Z,145181.94
2023-03-12T19:59:01.767Z,145285.16
2023-03-12T20:01:28.781Z,145293.66
2023-03-12T20:03:55.957Z,145297.31
2023-03-12T20:06:23.094Z,145293.66
2023-03-12T20:08:50.115Z,145290.00
2023-03-12T20:11:17.125Z,145283.97
2023-03-12T20:13:45.241Z,145302.16
2023-03-12T20:16:13.817Z,145315.50
2023-03-12T20:18:40.991Z,145322.78
2023-03-12T20:21:08.107Z,145309.41
2023-03-12T20:23:35.183Z,145310.66
2023-03-12T20:26:02.382Z,145310.66
2023-03-12T20:28:29.495Z,145292.47
2023-03-12T20:30:56.691Z,145300.91
2023-03-12T20:33:23.788Z,145288.81
2023-03-12T20:35:51.309Z,145257.25
2023-03-12T20:38:18.491Z,145277.84
2023-03-12T20:40:46.278Z,145266.94
2023-03-12T20:43:13.268Z,145259.66
2023-03-12T20:45:40.755Z,145201.41
2023-03-12T20:48:07.932Z,145257.25
2023-03-12T20:50:37.520Z,145240.19
2023-03-12T20:53:04.588Z,145303.38
2023-03-12T20:55:31.589Z,145305.78
2023-03-12T20:57:59.169Z,145296.06
2023-03-12T21:00:26.160Z,145283.97
2023-03-12T21:02:53.402Z,145258.44
2023-03-12T21:05:20.684Z,145254.78
2023-03-12T21:07:48.903Z,145208.66
2023-03-12T21:10:16.145Z,145225.66
2023-03-12T21:12:43.402Z,145208.66
2023-03-12T21:15:12.368Z,145194.09
2023-03-12T21:17:40.328Z,145191.66
2023-03-12T21:20:12.953Z,145155.25
2023-03-12T21:22:40.382Z,145165.00
2023-03-12T21:25:07.597Z,145175.91
2023-03-12T21:27:44.713Z,145150.41
2023-03-12T21:30:17.464Z,145172.25
2023-03-12T21:32:44.609Z,145163.75
2023-03-12T21:35:11.742Z,145186.78
2023-03-12T21:37:38.821Z,145186.78
2023-03-12T21:40:07.764Z,145202.59
2023-03-12T21:42:34.887Z,145186.78
2023-03-12T21:45:01.875Z,145198.94
2023-03-12T21:47:28.907Z,145162.53
2023-03-12T21:49:55.895Z,145143.16
2023-03-12T21:52:22.974Z,145127.34
2023-03-12T21:54:50.166Z,145084.91
2023-03-12T21:57:17.206Z,145135.84
2023-03-12T21:59:44.236Z,145111.59
2023-03-12T22:02:12.736Z,145082.47
2023-03-12T22:04:40.082Z,145103.09
2023-03-12T22:07:07.414Z,145046.06
2023-03-12T22:09:34.412Z,145065.50
2023-03-12T22:12:01.790Z,145041.22
2023-03-12T22:14:29.055Z,145061.88
2023-03-12T22:16:56.625Z,145040.03
2023-03-12T22:19:24.281Z,145033.97
2023-03-12T22:21:51.319Z,145020.63
2023-03-12T22:24:18.317Z,145001.25
2023-03-12T22:26:46.517Z,145012.13
2023-03-12T22:29:13.682Z,145043.69
2023-03-12T22:31:40.788Z,145041.22
2023-03-12T22:34:08.076Z,145017.00
2023-03-12T22:36:35.162Z,145052.16
2023-03-12T22:39:02.184Z,145033.97
2023-03-12T22:41:29.973Z,145014.53
2023-03-12T22:44:02.232Z,145023.03
2023-03-12T22:46:29.595Z,145013.34
2023-03-12T22:48:59.903Z,144996.34
2023-03-12T22:51:28.774Z,145004.84
2023-03-12T22:53:55.791Z,145018.19
2023-03-12T22:56:23.377Z,145025.47
2023-03-12T22:58:50.468Z,145047.31
2023-03-12T23:01:20.381Z,145048.53
2023-03-12T23:03:48.223Z,145046.06
2023-03-12T23:06:24.127Z,145060.66
2023-03-12T23:08:52.517Z,145070.38
2023-03-12T23:11:20.704Z,145081.25
2023-03-12T23:13:49.622Z,145114.00
2023-03-12T23:16:19.807Z,145104.31
2023-03-12T23:18:47.348Z,145131.00
2023-03-12T23:21:19.915Z,145152.84
2023-03-12T23:23:47.795Z,145156.50
2023-03-12T23:26:26.962Z,145163.75
2023-03-12T23:28:58.717Z,145140.69
2023-03-12T23:31:27.595Z,145177.09
2023-03-12T23:33:56.072Z,145155.25
2023-03-12T23:36:24.119Z,145162.53
2023-03-12T23:38:51.374Z,145167.41
2023-03-12T23:41:23.693Z,145171.03
2023-03-12T23:43:51.491Z,145148.00
2023-03-12T23:46:19.701Z,145152.84
2023-03-12T23:48:46.907Z,145149.19
2023-03-12T23:51:22.369Z,145133.44
2023-03-12T23:53:51.682Z,145148.00
2023-03-12T23:56:21.719Z,145178.28
2023-03-12T23:58:50.412Z,145172.25
